createdAt,value
2017-08-09T00:00:44.930Z,20.9
2017-08-09T00:01:44.115Z,20.9
2017-08-09T00:02:43.684Z,20.8
2017-08-09T00:03:42.897Z,20.9
2017-08-09T00:04:42.360Z,20.9
2017-08-09T00:05:41.819Z,20.9
2017-08-09T00:06:41.498Z,20.9
2017-08-09T00:07:40.565Z,20.8
2017-08-09T00:08:40.144Z,20.8
2017-08-09T00:09:39.334Z,20.8
2017-08-09T00:10:38.792Z,20.8
2017-08-09T00:11:38.373Z,20.8
2017-08-09T00:12:37.937Z,20.8
2017-08-09T00:13:37.120Z,20.8
2017-08-09T00:14:36.204Z,20.8
2017-08-09T00:15:35.798Z,20.8
2017-08-09T00:16:35.259Z,20.8
2017-08-09T00:17:34.837Z,20.8
2017-08-09T00:18:34.027Z,20.8
2017-08-09T00:19:33.466Z,20.8
2017-08-09T00:20:32.926Z,20.8
2017-08-09T00:21:32.522Z,20.8
2017-08-09T00:22:31.467Z,20.8
2017-08-09T00:23:31.154Z,20.8
2017-08-09T00:24:30.368Z,20.8
2017-08-09T00:25:30.068Z,20.8
2017-08-09T00:26:29.252Z,20.8
2017-08-09T00:27:28.716Z,20.8
2017-08-09T00:27:59.234Z,20.8
2017-08-09T00:28:29.611Z,20.7
2017-08-09T00:29:00.116Z,20.7
2017-08-09T00:29:30.505Z,20.8
2017-08-09T00:30:00.889Z,20.8
2017-08-09T00:30:31.267Z,20.8
2017-08-09T00:31:01.769Z,20.8
2017-08-09T00:31:32.149Z,20.7
2017-08-09T00:32:02.398Z,20.7
2017-08-09T00:33:25.150Z,20.7
2017-08-09T00:34:24.328Z,20.7
2017-08-09T00:35:23.545Z,20.7
2017-08-09T00:36:23.008Z,20.7
2017-08-09T00:37:22.465Z,20.7
2017-08-09T00:39:21.436Z,20.7
2017-08-09T00:40:20.999Z,20.7
2017-08-09T00:41:20.063Z,20.7
2017-08-09T00:42:19.756Z,20.7
2017-08-09T00:42:50.150Z,20.7
2017-08-09T00:43:20.555Z,20.7
2017-08-09T00:44:18.247Z,20.7
2017-08-09T00:45:17.940Z,20.7
2017-08-09T00:46:17.124Z,20.7
2017-08-09T00:47:16.699Z,20.7
2017-08-09T00:48:15.880Z,20.7
2017-08-09T00:49:15.602Z,20.6
2017-08-09T00:50:14.786Z,20.6
2017-08-09T00:52:13.874Z,20.6
2017-08-09T00:53:13.068Z,20.6
2017-08-09T00:54:12.629Z,20.6
2017-08-09T00:55:11.808Z,20.6
2017-08-09T00:56:11.391Z,20.6
2017-08-09T00:57:10.577Z,20.6
2017-08-09T00:58:09.665Z,20.5
2017-08-09T00:59:09.111Z,20.5
2017-08-09T01:00:08.580Z,20.5
2017-08-09T01:00:39.078Z,20.5
2017-08-09T01:01:09.591Z,20.5
2017-08-09T01:02:07.552Z,20.5
2017-08-09T01:03:06.740Z,20.5
2017-08-09T01:04:06.433Z,20.4
2017-08-09T01:05:05.661Z,20.4
2017-08-09T01:06:05.375Z,20.4
2017-08-09T01:07:04.577Z,20.4
2017-08-09T01:08:03.762Z,20.4
2017-08-09T01:09:03.341Z,20.4
2017-08-09T01:10:02.525Z,20.4
2017-08-09T01:11:01.976Z,20.4
2017-08-09T01:12:01.553Z,20.4
2017-08-09T01:13:01.113Z,20.4
2017-08-09T01:14:00.181Z,20.3
2017-08-09T01:14:59.750Z,20.3
2017-08-09T01:15:59.327Z,20.3
2017-08-09T01:16:58.404Z,20.3
2017-08-09T01:17:58.093Z,20.3
2017-08-09T01:18:57.307Z,20.3
2017-08-09T01:19:56.377Z,20.3
2017-08-09T01:20:55.837Z,20.2
2017-08-09T01:21:26.091Z,20.2
2017-08-09T01:21:56.587Z,20.2
2017-08-09T01:22:26.965Z,20.2
2017-08-09T01:23:54.112Z,20.2
2017-08-09T01:24:53.561Z,20.3
2017-08-09T01:25:52.750Z,20.2
2017-08-09T01:26:52.201Z,20.2
2017-08-09T01:27:51.774Z,20.2
2017-08-09T01:28:50.948Z,20.2
2017-08-09T01:29:50.516Z,20.2
2017-08-09T01:30:49.710Z,20.2
2017-08-09T01:31:49.430Z,20.2
2017-08-09T01:33:48.007Z,20.2
2017-08-09T01:34:47.242Z,20.2
2017-08-09T01:35:46.927Z,20.1
2017-08-09T01:36:46.116Z,20.1
2017-08-09T01:37:45.695Z,20.1
2017-08-09T01:38:45.268Z,20.1
2017-08-09T01:39:44.447Z,20.1
2017-08-09T01:40:43.632Z,20.1
2017-08-09T01:41:43.084Z,20.1
2017-08-09T01:42:42.550Z,20.1
2017-08-09T01:43:42.004Z,20.1
2017-08-09T01:44:41.475Z,20
2017-08-09T01:45:40.660Z,20
2017-08-09T01:46:40.244Z,20
2017-08-09T01:47:39.314Z,20
2017-08-09T01:48:39.006Z,20
2017-08-09T01:49:38.067Z,20
2017-08-09T01:50:37.646Z,20
2017-08-09T01:51:36.713Z,20
2017-08-09T01:52:36.396Z,19.9
2017-08-09T01:53:35.961Z,19.9
2017-08-09T01:54:35.165Z,19.9
2017-08-09T01:55:34.752Z,19.9
2017-08-09T01:56:33.952Z,19.9
2017-08-09T01:57:33.051Z,19.9
2017-08-09T01:58:32.734Z,19.9
2017-08-09T01:59:32.311Z,19.9
2017-08-09T02:00:31.377Z,19.8
2017-08-09T02:01:31.087Z,19.8
2017-08-09T02:02:30.162Z,19.8
2017-08-09T02:03:29.736Z,19.8
2017-08-09T02:04:29.077Z,19.8
2017-08-09T02:05:28.169Z,19.8
2017-08-09T02:06:27.874Z,19.7
2017-08-09T02:07:27.057Z,19.8
2017-08-09T02:08:26.629Z,19.8
2017-08-09T02:09:25.822Z,19.7
2017-08-09T02:10:25.388Z,19.7
2017-08-09T02:11:24.448Z,19.7
2017-08-09T02:12:23.894Z,19.7
2017-08-09T02:13:23.629Z,19.7
2017-08-09T02:14:22.966Z,19.6
2017-08-09T02:15:22.152Z,19.6
2017-08-09T02:16:21.834Z,19.6
2017-08-09T02:17:20.900Z,19.6
2017-08-09T02:18:19.855Z,19.6
2017-08-09T02:18:50.492Z,19.6
2017-08-09T02:19:20.864Z,19.6
2017-08-09T02:19:51.367Z,19.6
2017-08-09T02:21:18.235Z,19.5
2017-08-09T02:22:17.928Z,19.5
2017-08-09T02:23:16.869Z,19.5
2017-08-09T02:24:16.562Z,19.5
2017-08-09T02:25:15.747Z,19.5
2017-08-09T02:26:15.448Z,19.5
2017-08-09T02:27:14.535Z,19.5
2017-08-09T02:28:14.238Z,19.4
2017-08-09T02:29:13.434Z,19.4
2017-08-09T02:30:13.012Z,19.4
2017-08-09T02:30:43.414Z,19.4
2017-08-09T02:31:13.791Z,19.4
2017-08-09T02:31:44.077Z,19.4
2017-08-09T02:33:10.838Z,19.3
2017-08-09T02:34:10.299Z,19.3
2017-08-09T02:35:09.488Z,19.3
2017-08-09T02:36:09.075Z,19.3
2017-08-09T02:37:08.662Z,19.3
2017-08-09T02:38:07.875Z,19.3
2017-08-09T02:39:06.949Z,19.3
2017-08-09T02:40:06.704Z,19.3
2017-08-09T02:41:05.797Z,19.2
2017-08-09T02:42:05.140Z,19.2
2017-08-09T02:43:04.729Z,19.2
2017-08-09T02:44:03.918Z,19.2
2017-08-09T02:45:03.641Z,19.2
2017-08-09T02:46:02.718Z,19.2
2017-08-09T02:47:01.933Z,19.2
2017-08-09T02:48:01.650Z,19.1
2017-08-09T02:48:32.041Z,19.1
2017-08-09T02:49:02.544Z,19.2
2017-08-09T02:49:33.047Z,19.2
2017-08-09T02:50:03.327Z,19.1
2017-08-09T02:50:33.828Z,19.1
2017-08-09T02:51:04.213Z,19.1
2017-08-09T02:51:34.720Z,19.1
2017-08-09T02:52:58.063Z,19.1
2017-08-09T02:53:57.642Z,19.1
2017-08-09T02:54:56.725Z,19.1
2017-08-09T02:55:56.428Z,19.1
2017-08-09T02:56:55.631Z,19.1
2017-08-09T02:57:55.081Z,19.1
2017-08-09T02:58:54.276Z,19.1
2017-08-09T02:59:53.741Z,19
2017-08-09T03:00:53.221Z,19
2017-08-09T03:01:52.288Z,19
2017-08-09T03:03:51.387Z,19
2017-08-09T03:04:50.586Z,19
2017-08-09T03:05:50.161Z,19
2017-08-09T03:06:49.353Z,19
2017-08-09T03:07:48.422Z,19
2017-08-09T03:08:48.121Z,18.9
2017-08-09T03:09:47.325Z,18.9
2017-08-09T03:10:46.897Z,18.9
2017-08-09T03:11:46.245Z,18.9
2017-08-09T03:12:16.760Z,18.9
2017-08-09T03:13:45.133Z,18.9
2017-08-09T03:14:44.196Z,18.9
2017-08-09T03:15:43.666Z,18.8
2017-08-09T03:16:42.755Z,18.9
2017-08-09T03:17:42.327Z,18.9
2017-08-09T03:18:41.412Z,18.8
2017-08-09T03:19:40.990Z,18.8
2017-08-09T03:20:40.340Z,18.8
2017-08-09T03:21:39.426Z,18.8
2017-08-09T03:22:39.011Z,18.8
2017-08-09T03:23:38.710Z,18.8
2017-08-09T03:24:37.916Z,18.8
2017-08-09T03:26:36.398Z,18.8
2017-08-09T03:27:35.864Z,18.8
2017-08-09T03:28:35.091Z,18.8
2017-08-09T03:29:34.790Z,18.7
2017-08-09T03:30:33.991Z,18.7
2017-08-09T03:31:33.190Z,18.7
2017-08-09T03:33:32.172Z,18.7
2017-08-09T03:34:31.373Z,18.7
2017-08-09T03:35:30.564Z,18.6
2017-08-09T03:36:30.265Z,18.6
2017-08-09T03:37:29.349Z,18.6
2017-08-09T03:38:29.073Z,18.6
2017-08-09T03:39:28.044Z,18.6
2017-08-09T03:40:27.748Z,18.6
2017-08-09T03:41:26.825Z,18.6
2017-08-09T03:42:25.900Z,18.6
2017-08-09T03:42:56.285Z,18.6
2017-08-09T03:43:26.799Z,18.6
2017-08-09T03:44:25.137Z,18.6
2017-08-09T03:45:24.223Z,18.5
2017-08-09T03:46:23.414Z,18.6
2017-08-09T03:47:23.129Z,18.6
2017-08-09T03:48:22.898Z,18.5
2017-08-09T03:49:21.458Z,18.5
2017-08-09T03:50:20.807Z,18.6
2017-08-09T03:51:20.502Z,18.6
2017-08-09T03:52:19.703Z,18.5
2017-08-09T03:53:18.897Z,18.5
2017-08-09T03:54:18.605Z,18.6
2017-08-09T03:55:17.797Z,18.6
2017-08-09T03:56:17.180Z,18.6
2017-08-09T03:57:16.376Z,18.6
2017-08-09T03:58:15.722Z,18.6
2017-08-09T03:58:46.226Z,18.6
2017-08-09T03:59:16.724Z,18.6
2017-08-09T04:00:14.299Z,18.6
2017-08-09T04:01:13.993Z,18.6
2017-08-09T04:02:13.184Z,18.6
2017-08-09T04:03:12.777Z,18.5
2017-08-09T04:04:11.970Z,18.6
2017-08-09T04:05:11.182Z,18.6
2017-08-09T04:06:10.284Z,18.6
2017-08-09T04:07:09.978Z,18.6
2017-08-09T04:08:09.170Z,18.5
2017-08-09T04:09:08.857Z,18.5
2017-08-09T04:10:07.937Z,18.5
2017-08-09T04:11:07.136Z,18.5
2017-08-09T04:12:06.485Z,18.5
2017-08-09T04:13:06.133Z,18.5
2017-08-09T04:14:05.357Z,18.5
2017-08-09T04:15:04.446Z,18.5
2017-08-09T04:16:04.030Z,18.5
2017-08-09T04:17:03.483Z,18.5
2017-08-09T04:18:02.563Z,18.5
2017-08-09T04:19:02.149Z,18.5
2017-08-09T04:20:01.725Z,18.5
2017-08-09T04:21:00.925Z,18.5
2017-08-09T04:22:00.126Z,18.5
2017-08-09T04:22:59.700Z,18.5
2017-08-09T04:23:58.910Z,18.5
2017-08-09T04:24:58.116Z,18.5
2017-08-09T04:25:57.698Z,18.5
2017-08-09T04:26:56.893Z,18.5
2017-08-09T04:27:55.959Z,18.5
2017-08-09T04:28:55.657Z,18.5
2017-08-09T04:29:54.848Z,18.5
2017-08-09T04:30:54.094Z,18.5
2017-08-09T04:31:53.788Z,18.5
2017-08-09T04:32:52.996Z,18.5
2017-08-09T04:33:52.077Z,18.5
2017-08-09T04:35:50.810Z,18.5
2017-08-09T04:36:50.275Z,18.5
2017-08-09T04:37:49.850Z,18.5
2017-08-09T04:38:20.120Z,18.5
2017-08-09T04:38:50.623Z,18.5
2017-08-09T04:39:21.124Z,18.5
2017-08-09T04:39:51.618Z,18.5
2017-08-09T04:40:22.015Z,18.5
2017-08-09T04:40:52.804Z,18.5
2017-08-09T04:41:23.204Z,18.5
2017-08-09T04:42:46.564Z,18.5
2017-08-09T04:43:45.632Z,18.6
2017-08-09T04:44:44.982Z,18.6
2017-08-09T04:45:44.339Z,18.6
2017-08-09T04:46:43.914Z,18.6
2017-08-09T04:47:43.103Z,18.6
2017-08-09T04:48:42.271Z,18.6
2017-08-09T04:49:41.965Z,18.6
2017-08-09T04:50:12.357Z,18.6
2017-08-09T04:50:42.863Z,18.6
2017-08-09T04:51:13.380Z,18.6
2017-08-09T04:51:43.662Z,18.6
2017-08-09T04:52:13.936Z,18.6
2017-08-09T04:53:39.305Z,18.6
2017-08-09T04:54:38.371Z,18.6
2017-08-09T04:55:38.096Z,18.6
2017-08-09T04:56:37.309Z,18.7
2017-08-09T04:57:36.389Z,18.7
2017-08-09T04:58:35.852Z,18.7
2017-08-09T04:59:35.306Z,18.7
2017-08-09T05:00:34.888Z,18.7
2017-08-09T05:01:34.076Z,18.7
2017-08-09T05:02:33.153Z,18.7
2017-08-09T05:03:32.855Z,18.7
2017-08-09T05:04:31.942Z,18.8
2017-08-09T05:05:31.146Z,18.8
2017-08-09T05:06:30.833Z,18.9
2017-08-09T05:07:30.046Z,18.8
2017-08-09T05:08:29.623Z,18.8
2017-08-09T05:09:28.710Z,18.9
2017-08-09T05:10:27.775Z,18.9
2017-08-09T05:11:27.626Z,18.9
2017-08-09T05:12:26.604Z,18.9
2017-08-09T05:13:26.299Z,18.9
2017-08-09T05:14:25.367Z,18.9
2017-08-09T05:15:24.948Z,18.9
2017-08-09T05:16:24.403Z,18.9
2017-08-09T05:17:23.481Z,19
2017-08-09T05:18:23.084Z,19
2017-08-09T05:19:22.050Z,18.9
2017-08-09T05:20:21.756Z,19
2017-08-09T05:21:20.952Z,19
2017-08-09T05:22:20.138Z,19
2017-08-09T05:23:19.714Z,19
2017-08-09T05:24:18.924Z,18.9
2017-08-09T05:26:17.522Z,19
2017-08-09T05:27:17.227Z,18.9
2017-08-09T05:28:16.302Z,19
2017-08-09T05:29:15.398Z,19
2017-08-09T05:30:14.978Z,19
2017-08-09T05:31:14.176Z,19
2017-08-09T05:31:44.700Z,19
2017-08-09T05:33:13.088Z,19
2017-08-09T05:34:12.164Z,19
2017-08-09T05:35:11.623Z,19.1
2017-08-09T05:36:11.202Z,19.1
2017-08-09T05:37:10.395Z,19.1
2017-08-09T05:38:10.092Z,19.1
2017-08-09T05:39:09.300Z,19.1
2017-08-09T05:40:08.387Z,19.1
2017-08-09T05:41:07.720Z,19.1
2017-08-09T05:42:07.411Z,19.1
2017-08-09T05:43:06.603Z,19.2
2017-08-09T05:44:05.686Z,19.2
2017-08-09T05:46:04.663Z,19.2
2017-08-09T05:47:04.130Z,19.2
2017-08-09T05:47:34.642Z,19.2
2017-08-09T05:48:05.150Z,19.2
2017-08-09T05:49:02.617Z,19.2
2017-08-09T05:50:02.317Z,19.2
2017-08-09T05:52:00.790Z,19.3
2017-08-09T05:52:59.972Z,19.3
2017-08-09T05:53:59.663Z,19.3
2017-08-09T05:54:58.743Z,19.3
2017-08-09T05:55:58.444Z,19.3
2017-08-09T05:56:57.644Z,19.3
2017-08-09T05:57:56.838Z,19.3
2017-08-09T05:58:56.027Z,19.3
2017-08-09T05:59:55.605Z,19.3
2017-08-09T06:00:55.072Z,19.4
2017-08-09T06:01:54.156Z,19.4
2017-08-09T06:02:53.850Z,19.4
2017-08-09T06:03:52.931Z,19.3
2017-08-09T06:04:52.627Z,19.4
2017-08-09T06:05:51.703Z,19.4
2017-08-09T06:06:51.149Z,19.4
2017-08-09T06:07:50.721Z,19.4
2017-08-09T06:08:49.793Z,19.4
2017-08-09T06:09:49.258Z,19.4
2017-08-09T06:10:48.453Z,19.4
2017-08-09T06:11:47.912Z,19.5
2017-08-09T06:12:47.104Z,19.5
2017-08-09T06:13:46.808Z,19.5
2017-08-09T06:14:45.890Z,19.5
2017-08-09T06:15:45.082Z,19.5
2017-08-09T06:16:44.792Z,19.6
2017-08-09T06:17:43.978Z,19.6
2017-08-09T06:18:14.363Z,19.6
2017-08-09T06:18:44.620Z,19.6
2017-08-09T06:19:42.806Z,19.7
2017-08-09T06:20:42.005Z,19.7
2017-08-09T06:21:41.350Z,19.7
2017-08-09T06:22:41.056Z,19.7
2017-08-09T06:23:40.438Z,19.7
2017-08-09T06:24:39.514Z,19.8
2017-08-09T06:25:38.707Z,19.8
2017-08-09T06:26:38.293Z,19.9
2017-08-09T06:27:37.875Z,19.9
2017-08-09T06:28:36.945Z,19.9
2017-08-09T06:29:36.288Z,19.9
2017-08-09T06:30:35.871Z,19.9
2017-08-09T06:31:34.946Z,19.9
2017-08-09T06:32:34.644Z,20
2017-08-09T06:33:33.855Z,20
2017-08-09T06:34:33.045Z,20
2017-08-09T06:35:32.616Z,20.1
2017-08-09T06:36:31.817Z,20.1
2017-08-09T06:37:31.530Z,20.1
2017-08-09T06:38:30.726Z,20.2
2017-08-09T06:39:01.127Z,20.2
2017-08-09T06:39:31.635Z,20.2
2017-08-09T06:40:02.146Z,20.2
2017-08-09T06:40:32.448Z,20.2
2017-08-09T06:41:02.965Z,20.2
2017-08-09T06:42:28.101Z,20.3
2017-08-09T06:43:27.170Z,20.3
2017-08-09T06:44:26.745Z,20.4
2017-08-09T06:45:26.432Z,20.4
2017-08-09T06:47:24.887Z,20.4
2017-08-09T06:48:24.344Z,20.4
2017-08-09T06:49:23.797Z,20.4
2017-08-09T06:50:22.863Z,20.5
2017-08-09T06:51:22.453Z,20.5
2017-08-09T06:52:22.036Z,20.5
2017-08-09T06:53:21.232Z,20.5
2017-08-09T06:54:20.434Z,20.5
2017-08-09T06:55:20.145Z,20.5
2017-08-09T06:56:19.359Z,20.5
2017-08-09T06:57:18.557Z,20.5
2017-08-09T06:58:18.260Z,20.5
2017-08-09T06:58:48.762Z,20.5
2017-08-09T07:00:16.684Z,20.5
2017-08-09T07:01:16.383Z,20.4
2017-08-09T07:02:15.455Z,20.4
2017-08-09T07:03:15.164Z,20.4
2017-08-09T07:04:14.378Z,20.4
2017-08-09T07:05:13.853Z,20.4
2017-08-09T07:06:13.323Z,20.4
2017-08-09T07:07:12.399Z,20.4
2017-08-09T07:08:11.980Z,20.4
2017-08-09T07:09:11.066Z,20.4
2017-08-09T07:10:10.521Z,20.4
2017-08-09T07:10:41.396Z,20.4
2017-08-09T07:11:11.795Z,20.5
2017-08-09T07:11:42.183Z,20.5
2017-08-09T07:13:08.829Z,20.5
2017-08-09T07:14:07.908Z,20.4
2017-08-09T07:15:07.486Z,20.4
2017-08-09T07:16:07.178Z,20.4
2017-08-09T07:17:06.279Z,20.4
2017-08-09T07:18:05.474Z,20.4
2017-08-09T07:19:05.063Z,20.4
2017-08-09T07:20:04.258Z,20.5
2017-08-09T07:21:03.843Z,20.5
2017-08-09T07:23:02.841Z,20.5
2017-08-09T07:24:01.941Z,20.5
2017-08-09T07:25:01.530Z,20.5
2017-08-09T07:26:00.483Z,20.5
2017-08-09T07:27:00.048Z,20.5
2017-08-09T07:27:59.268Z,20.6
2017-08-09T07:28:58.725Z,20.6
2017-08-09T07:29:58.423Z,20.6
2017-08-09T07:30:57.510Z,20.7
2017-08-09T07:31:57.212Z,20.7
2017-08-09T07:32:56.298Z,20.8
2017-08-09T07:33:55.990Z,20.8
2017-08-09T07:34:55.187Z,20.8
2017-08-09T07:35:54.265Z,20.9
2017-08-09T07:36:53.839Z,20.9
2017-08-09T07:37:53.532Z,21
2017-08-09T07:38:52.724Z,21
2017-08-09T07:39:52.312Z,21
2017-08-09T07:40:51.394Z,21
2017-08-09T07:41:51.114Z,21
2017-08-09T07:42:50.322Z,21
2017-08-09T07:43:49.926Z,21
2017-08-09T07:44:49.001Z,21.1
2017-08-09T07:45:48.597Z,21.1
2017-08-09T07:46:47.792Z,21.1
2017-08-09T07:47:47.489Z,21.1
2017-08-09T07:48:46.686Z,21.1
2017-08-09T07:49:46.284Z,21.2
2017-08-09T07:50:45.364Z,21.1
2017-08-09T07:51:44.836Z,21.1
2017-08-09T07:52:44.037Z,21.2
2017-08-09T07:53:43.726Z,21.2
2017-08-09T07:54:42.817Z,21.2
2017-08-09T07:55:42.397Z,21.3
2017-08-09T07:56:41.593Z,21.2
2017-08-09T07:57:41.299Z,21.2
2017-08-09T07:58:40.647Z,21.2
2017-08-09T07:59:39.603Z,21.2
2017-08-09T08:00:39.310Z,21.2
2017-08-09T08:01:38.890Z,21.2
2017-08-09T08:02:37.963Z,21.1
2017-08-09T08:03:37.417Z,21.1
2017-08-09T08:04:37.118Z,21
2017-08-09T08:05:36.192Z,21
2017-08-09T08:06:35.884Z,21
2017-08-09T08:07:35.088Z,21
2017-08-09T08:08:05.357Z,21
2017-08-09T08:08:35.623Z,21.1
2017-08-09T08:09:05.998Z,21.1
2017-08-09T08:10:33.154Z,21.1
2017-08-09T08:11:32.725Z,21.1
2017-08-09T08:12:32.310Z,21.1
2017-08-09T08:13:31.391Z,21.1
2017-08-09T08:14:31.099Z,21.1
2017-08-09T08:15:30.297Z,21.1
2017-08-09T08:16:29.650Z,21.2
2017-08-09T08:17:28.853Z,21.2
2017-08-09T08:18:28.436Z,21.2
2017-08-09T08:18:58.817Z,21.2
2017-08-09T08:19:29.320Z,21.2
2017-08-09T08:19:59.716Z,21.2
2017-08-09T08:20:30.217Z,21.2
2017-08-09T08:21:00.596Z,21.2
2017-08-09T08:21:30.976Z,21.3
2017-08-09T08:22:26.147Z,21.2
2017-08-09T08:23:24.992Z,21.2
2017-08-09T08:24:24.968Z,21.2
2017-08-09T08:25:24.045Z,21.2
2017-08-09T08:26:23.748Z,21.3
2017-08-09T08:27:22.954Z,21.3
2017-08-09T08:28:22.535Z,21.3
2017-08-09T08:29:21.738Z,21.4
2017-08-09T08:30:21.445Z,21.5
2017-08-09T08:31:20.528Z,21.5
2017-08-09T08:32:20.116Z,21.5
2017-08-09T08:33:19.298Z,21.5
2017-08-09T08:34:18.873Z,21.5
2017-08-09T08:35:18.056Z,21.6
2017-08-09T08:36:17.760Z,21.7
2017-08-09T08:37:16.843Z,21.6
2017-08-09T08:37:47.230Z,21.6
2017-08-09T08:38:17.733Z,21.6
2017-08-09T08:39:15.922Z,21.6
2017-08-09T08:40:14.986Z,21.6
2017-08-09T08:41:14.569Z,21.7
2017-08-09T08:43:13.659Z,21.7
2017-08-09T08:44:12.841Z,21.7
2017-08-09T08:45:12.041Z,21.7
2017-08-09T08:46:11.497Z,21.7
2017-08-09T08:47:11.082Z,21.7
2017-08-09T08:48:10.274Z,21.9
2017-08-09T08:49:09.863Z,21.9
2017-08-09T08:50:09.321Z,21.9
2017-08-09T08:51:08.509Z,22.1
2017-08-09T08:52:08.210Z,22.1
2017-08-09T08:53:07.413Z,22
2017-08-09T08:54:07.113Z,22.1
2017-08-09T08:55:06.070Z,22.1
2017-08-09T08:56:05.706Z,22.1
2017-08-09T08:57:05.288Z,22.1
2017-08-09T08:58:04.362Z,22.2
2017-08-09T08:58:34.740Z,22.2
2017-08-09T08:59:05.126Z,22.2
2017-08-09T08:59:35.510Z,22.2
2017-08-09T09:00:06.011Z,22.1
2017-08-09T09:00:36.277Z,22.1
2017-08-09T09:02:01.948Z,22.1
2017-08-09T09:03:01.663Z,22.1
2017-08-09T09:04:00.867Z,22.1
2017-08-09T09:05:00.566Z,22.2
2017-08-09T09:05:59.548Z,22.2
2017-08-09T09:06:59.029Z,22.2
2017-08-09T09:07:58.495Z,22.3
2017-08-09T09:08:58.203Z,22.3
2017-08-09T09:09:57.398Z,22.3
2017-08-09T09:10:56.482Z,22.4
2017-08-09T09:11:56.195Z,22.4
2017-08-09T09:12:26.584Z,22.4
2017-08-09T09:12:56.970Z,22.4
2017-08-09T09:13:54.924Z,22.4
2017-08-09T09:14:54.614Z,22.5
2017-08-09T09:15:53.810Z,22.4
2017-08-09T09:16:53.501Z,22.4
2017-08-09T09:17:53.264Z,22.5
2017-08-09T09:18:51.960Z,22.5
2017-08-09T09:19:51.433Z,22.5
2017-08-09T09:20:51.140Z,22.4
2017-08-09T09:21:50.225Z,22.3
2017-08-09T09:22:49.688Z,22.2
2017-08-09T09:23:49.290Z,22.3
2017-08-09T09:24:48.498Z,22.3
2017-08-09T09:25:47.959Z,22.2
2017-08-09T09:26:47.648Z,22.2
2017-08-09T09:27:46.745Z,22.2
2017-08-09T09:28:46.438Z,22.1
2017-08-09T09:29:45.630Z,22.1
2017-08-09T09:30:45.327Z,22.2
2017-08-09T09:31:15.829Z,22.2
2017-08-09T09:31:46.217Z,22.3
2017-08-09T09:32:16.716Z,22.3
2017-08-09T09:33:43.584Z,22.2
2017-08-09T09:34:42.546Z,22.1
2017-08-09T09:35:42.024Z,22.1
2017-08-09T09:36:41.729Z,22.2
2017-08-09T09:37:40.933Z,22.2
2017-08-09T09:38:40.402Z,22.2
2017-08-09T09:39:39.983Z,22.2
2017-08-09T09:40:39.177Z,22.3
2017-08-09T09:41:38.768Z,22.4
2017-08-09T09:42:09.283Z,22.4
2017-08-09T09:43:37.685Z,22.5
2017-08-09T09:44:36.766Z,22.6
2017-08-09T09:45:36.226Z,22.6
2017-08-09T09:46:35.811Z,22.7
2017-08-09T09:47:35.399Z,22.7
2017-08-09T09:48:34.483Z,22.7
2017-08-09T09:49:34.177Z,22.6
2017-08-09T09:50:33.374Z,22.6
2017-08-09T09:51:33.074Z,22.7
2017-08-09T09:53:31.669Z,22.8
2017-08-09T09:54:31.059Z,22.9
2017-08-09T09:55:30.771Z,22.9
2017-08-09T09:56:29.974Z,22.9
2017-08-09T09:57:29.552Z,22.9
2017-08-09T09:58:29.009Z,22.8
2017-08-09T09:58:59.271Z,22.8
2017-08-09T09:59:29.784Z,22.8
2017-08-09T10:00:27.747Z,22.7
2017-08-09T10:01:26.937Z,22.8
2017-08-09T10:02:26.640Z,22.9
2017-08-09T10:03:26.781Z,23
2017-08-09T10:04:25.220Z,23
2017-08-09T10:05:24.917Z,22.9
2017-08-09T10:06:24.112Z,22.9
2017-08-09T10:07:23.466Z,22.8
2017-08-09T10:08:23.043Z,22.8
2017-08-09T10:10:22.008Z,22.7
2017-08-09T10:11:21.194Z,22.7
2017-08-09T10:12:20.783Z,22.7
2017-08-09T10:13:20.475Z,22.8
2017-08-09T10:14:19.421Z,22.9
2017-08-09T10:15:19.010Z,23
2017-08-09T10:16:18.715Z,23.1
2017-08-09T10:17:17.791Z,23.1
2017-08-09T10:18:17.503Z,23.2
2017-08-09T10:19:16.686Z,23.3
2017-08-09T10:20:16.380Z,23.5
2017-08-09T10:21:15.460Z,23.5
2017-08-09T10:22:15.146Z,23.4
2017-08-09T10:23:14.498Z,23.5
2017-08-09T10:24:13.955Z,23.5
2017-08-09T10:25:13.416Z,23.5
2017-08-09T10:26:13.107Z,23.4
2017-08-09T10:27:12.190Z,23.4
2017-08-09T10:28:11.637Z,23.5
2017-08-09T10:29:11.227Z,23.4
2017-08-09T10:30:10.419Z,23.3
2017-08-09T10:31:10.005Z,23.3
2017-08-09T10:32:09.254Z,23.2
2017-08-09T10:33:08.828Z,23.2
2017-08-09T10:34:08.523Z,23.2
2017-08-09T10:35:07.728Z,23.2
2017-08-09T10:36:07.303Z,23.3
2017-08-09T10:37:06.487Z,23.3
2017-08-09T10:38:06.056Z,23.3
2017-08-09T10:38:36.434Z,23.3
2017-08-09T10:39:06.841Z,23.4
2017-08-09T10:39:37.109Z,23.4
2017-08-09T10:41:04.372Z,23.5
2017-08-09T10:42:04.071Z,23.4
2017-08-09T10:43:03.152Z,23.3
2017-08-09T10:44:02.637Z,23.3
2017-08-09T10:45:02.341Z,23.3
2017-08-09T10:46:01.422Z,23.3
2017-08-09T10:47:01.123Z,23.5
2017-08-09T10:48:00.332Z,23.8
2017-08-09T10:48:59.805Z,23.8
2017-08-09T10:49:59.391Z,23.9
2017-08-09T10:50:29.898Z,23.9
2017-08-09T10:51:00.296Z,24.1
2017-08-09T10:51:30.704Z,24.1
2017-08-09T10:52:01.206Z,24.1
2017-08-09T10:52:31.586Z,24.1
2017-08-09T10:53:02.093Z,24.2
2017-08-09T10:53:32.484Z,24.2
2017-08-09T10:54:56.604Z,24.1
2017-08-09T10:55:56.184Z,24.2
2017-08-09T10:57:55.057Z,24.2
2017-08-09T10:58:54.255Z,24.2
2017-08-09T10:59:53.561Z,24.1
2017-08-09T11:00:53.276Z,24
2017-08-09T11:01:52.972Z,24
2017-08-09T11:02:52.051Z,24
2017-08-09T11:03:51.396Z,24
2017-08-09T11:04:51.094Z,24
2017-08-09T11:05:50.690Z,24.1
2017-08-09T11:06:50.275Z,24.1
2017-08-09T11:07:49.343Z,24.2
2017-08-09T11:08:48.690Z,24.2
2017-08-09T11:09:48.273Z,24.2
2017-08-09T11:10:18.664Z,24.2
2017-08-09T11:10:49.167Z,24
2017-08-09T11:11:19.671Z,24
2017-08-09T11:12:46.936Z,24.1
2017-08-09T11:13:46.134Z,24.1
2017-08-09T11:14:45.842Z,24.1
2017-08-09T11:15:45.410Z,24.1
2017-08-09T11:16:44.866Z,24.1
2017-08-09T11:17:44.083Z,24.3
2017-08-09T11:18:43.669Z,24.4
2017-08-09T11:19:43.257Z,24.3
2017-08-09T11:20:42.457Z,24.3
2017-08-09T11:21:41.921Z,24.3
2017-08-09T11:22:41.621Z,24.4
2017-08-09T11:23:41.104Z,24.3
2017-08-09T11:24:11.508Z,24.3
2017-08-09T11:24:42.281Z,24.4
2017-08-09T11:25:39.831Z,24.4
2017-08-09T11:27:38.934Z,24.6
2017-08-09T11:28:38.130Z,24.7
2017-08-09T11:29:37.824Z,24.7
2017-08-09T11:30:37.289Z,24.7
2017-08-09T11:31:36.763Z,24.7
2017-08-09T11:32:35.852Z,24.8
2017-08-09T11:33:35.549Z,24.9
2017-08-09T11:34:35.259Z,24.9
2017-08-09T11:35:34.332Z,25
2017-08-09T11:36:34.039Z,24.9
2017-08-09T11:37:33.727Z,24.8
2017-08-09T11:38:32.923Z,24.9
2017-08-09T11:39:32.266Z,24.9
2017-08-09T11:40:32.110Z,25
2017-08-09T11:41:31.699Z,25.2
2017-08-09T11:42:30.776Z,25.2
2017-08-09T11:43:30.351Z,25.3
2017-08-09T11:44:29.926Z,25.3
2017-08-09T11:45:29.388Z,25.3
2017-08-09T11:46:28.638Z,25.3
2017-08-09T11:47:28.106Z,25.4
2017-08-09T11:48:27.676Z,25.5
2017-08-09T11:48:57.944Z,25.5
2017-08-09T11:50:26.826Z,25.5
2017-08-09T11:51:26.406Z,25.6
2017-08-09T11:52:25.981Z,25.7
2017-08-09T11:53:25.452Z,25.7
2017-08-09T11:54:24.534Z,25.6
2017-08-09T11:55:24.112Z,25.5
2017-08-09T11:56:23.696Z,25.7
2017-08-09T11:57:23.279Z,25.4
2017-08-09T11:58:22.862Z,25.3
2017-08-09T11:59:21.958Z,25.3
2017-08-09T12:00:21.648Z,25.6
2017-08-09T12:01:21.367Z,25.8
2017-08-09T12:02:20.880Z,26
2017-08-09T12:03:20.084Z,25.7
2017-08-09T12:04:19.674Z,25.9
2017-08-09T12:05:19.379Z,26
2017-08-09T12:06:18.457Z,26.2
2017-08-09T12:07:18.158Z,26.4
2017-08-09T12:08:17.850Z,26.5
2017-08-09T12:09:17.050Z,26.7
2017-08-09T12:10:16.634Z,26.9
2017-08-09T12:11:16.336Z,27
2017-08-09T12:12:15.537Z,27
2017-08-09T12:13:15.234Z,26.9
2017-08-09T12:15:14.201Z,27
2017-08-09T12:16:13.781Z,27.1
2017-08-09T12:17:13.370Z,27.2
2017-08-09T12:18:12.587Z,27.3
2017-08-09T12:19:12.295Z,27.4
2017-08-09T12:19:42.714Z,27.4
2017-08-09T12:20:13.020Z,27.4
2017-08-09T12:20:43.551Z,27.4
2017-08-09T12:21:13.973Z,27.1
2017-08-09T12:21:44.373Z,27.1
2017-08-09T12:22:14.651Z,27
2017-08-09T12:22:45.044Z,27
2017-08-09T12:24:09.669Z,27.4
2017-08-09T12:25:09.258Z,27.5
2017-08-09T12:26:08.727Z,27.6
2017-08-09T12:27:08.307Z,27.7
2017-08-09T12:28:07.771Z,27.4
2017-08-09T12:29:07.355Z,27.8
2017-08-09T12:30:07.051Z,27.7
2017-08-09T12:31:06.757Z,27.8
2017-08-09T12:32:05.960Z,27.8
2017-08-09T12:33:05.424Z,27.8
2017-08-09T12:34:05.008Z,27.9
2017-08-09T12:35:04.595Z,28
2017-08-09T12:37:03.699Z,28.3
2017-08-09T12:38:03.036Z,28.3
2017-08-09T12:39:02.619Z,28.1
2017-08-09T12:40:02.327Z,28.1
2017-08-09T12:41:01.920Z,28
2017-08-09T12:42:01.511Z,28.2
2017-08-09T12:43:01.101Z,28.1
2017-08-09T12:44:00.710Z,28.2
2017-08-09T12:45:00.170Z,28
2017-08-09T12:45:59.750Z,28
2017-08-09T12:46:58.943Z,28.1
2017-08-09T12:47:58.523Z,28.2
2017-08-09T12:48:58.218Z,28.2
2017-08-09T12:49:57.916Z,28.4
2017-08-09T12:50:57.034Z,28.5
2017-08-09T12:51:56.729Z,28.3